createdAt,value
2022-12-15T00:00:31.266Z,-3.10
2022-12-15T00:04:31.790Z,-3.20
2022-12-15T00:08:32.168Z,-3.20
2022-12-15T00:12:32.581Z,-3.30
2022-12-15T00:16:33.137Z,-3.40
2022-12-15T00:20:33.883Z,-3.50
2022-12-15T00:24:34.471Z,-3.60
2022-12-15T00:28:34.921Z,-3.60
2022-12-15T00:32:35.343Z,-3.70
2022-12-15T00:36:35.900Z,-3.70
2022-12-15T00:40:17.836Z,-3.70
2022-12-15T00:43:59.554Z,-3.80
2022-12-15T00:47:41.447Z,-3.80
2022-12-15T00:51:42.176Z,-3.80
2022-12-15T00:55:42.406Z,-3.90
2022-12-15T00:59:42.685Z,-3.90
2022-12-15T01:03:43.976Z,-4.00
2022-12-15T01:07:44.787Z,-4.00
2022-12-15T01:11:50.320Z,-4.00
2022-12-15T01:15:50.978Z,-4.10
2022-12-15T01:19:51.744Z,-4.10
2022-12-15T01:23:34.634Z,-4.10
2022-12-15T01:27:16.642Z,-4.20
2022-12-15T01:30:58.667Z,-4.20
2022-12-15T01:34:40.557Z,-4.20
2022-12-15T01:38:22.319Z,-4.30
2022-12-15T01:42:04.107Z,-4.30
2022-12-15T01:46:04.416Z,-4.30
2022-12-15T01:49:47.679Z,-4.40
2022-12-15T01:53:35.527Z,-4.40
2022-12-15T01:57:29.625Z,-4.40
2022-12-15T02:01:11.801Z,-4.40
2022-12-15T02:04:58.732Z,-4.50
2022-12-15T02:08:42.398Z,-4.50
2022-12-15T02:12:45.669Z,-4.50
2022-12-15T02:16:52.794Z,-4.60
2022-12-15T02:20:56.464Z,-4.60
2022-12-15T02:24:38.185Z,-4.60
2022-12-15T02:28:42.836Z,-4.60
2022-12-15T02:32:50.282Z,-4.70
2022-12-15T02:37:05.994Z,-4.70
2022-12-15T02:40:47.694Z,-4.80
2022-12-15T02:44:37.044Z,-4.80
2022-12-15T02:48:43.029Z,-4.90
2022-12-15T02:52:50.259Z,-4.90
2022-12-15T02:56:46.066Z,-5.00
2022-12-15T03:00:30.830Z,-5.00
2022-12-15T03:04:13.414Z,-5.10
2022-12-15T03:07:55.205Z,-5.10
2022-12-15T03:11:37.494Z,-5.20
2022-12-15T03:15:19.674Z,-5.20
2022-12-15T03:19:01.443Z,-5.20
2022-12-15T03:22:43.193Z,-5.30
2022-12-15T03:26:24.913Z,-5.30
2022-12-15T03:30:07.421Z,-5.30
2022-12-15T03:33:49.167Z,-5.30
2022-12-15T03:37:30.951Z,-5.30
2022-12-15T03:41:12.653Z,-5.30
2022-12-15T03:44:54.350Z,-5.30
2022-12-15T03:48:36.278Z,-5.30
2022-12-15T03:52:17.998Z,-5.30
2022-12-15T03:55:59.706Z,-5.40
2022-12-15T03:59:41.475Z,-5.50
2022-12-15T04:03:23.319Z,-5.50
2022-12-15T04:07:05.125Z,-5.60
2022-12-15T04:10:46.850Z,-5.70
2022-12-15T04:14:28.941Z,-5.70
2022-12-15T04:18:10.895Z,-5.70
2022-12-15T04:21:52.610Z,-5.70
2022-12-15T04:25:53.285Z,-5.70
2022-12-15T04:29:53.806Z,-5.70
2022-12-15T04:33:56.086Z,-5.70
2022-12-15T04:37:56.505Z,-5.70
2022-12-15T04:41:56.987Z,-5.80
2022-12-15T04:45:57.515Z,-5.80
2022-12-15T04:49:57.780Z,-5.80
2022-12-15T04:53:58.105Z,-5.90
2022-12-15T04:57:58.508Z,-5.90
2022-12-15T05:01:59.081Z,-5.90
2022-12-15T05:05:59.375Z,-5.90
2022-12-15T05:10:03.209Z,-6.00
2022-12-15T05:14:03.773Z,-6.00
2022-12-15T05:18:04.246Z,-6.00
2022-12-15T05:22:04.822Z,-6.00
2022-12-15T05:26:05.290Z,-6.10
2022-12-15T05:30:05.573Z,-6.10
2022-12-15T05:33:47.314Z,-6.10
2022-12-15T05:37:29.038Z,-6.10
2022-12-15T05:41:10.744Z,-6.10
2022-12-15T05:44:52.457Z,-6.10
2022-12-15T05:48:34.197Z,-6.10
2022-12-15T05:52:15.927Z,-6.10
2022-12-15T05:56:05.568Z,-6.20
2022-12-15T05:59:47.304Z,-6.20
2022-12-15T06:03:29.287Z,-6.30
2022-12-15T06:07:11.210Z,-6.30
2022-12-15T06:10:54.565Z,-6.30
2022-12-15T06:14:36.355Z,-6.40
2022-12-15T06:18:18.085Z,-6.40
2022-12-15T06:21:59.796Z,-6.40
2022-12-15T06:25:41.504Z,-6.50
2022-12-15T06:29:23.443Z,-6.50
2022-12-15T06:33:05.205Z,-6.50
2022-12-15T06:36:47.331Z,-6.50
2022-12-15T06:40:31.041Z,-6.60
2022-12-15T06:44:16.605Z,-6.60
2022-12-15T06:48:01.455Z,-6.60
2022-12-15T06:51:44.972Z,-6.70
2022-12-15T06:55:26.821Z,-6.70
2022-12-15T06:59:10.525Z,-6.70
2022-12-15T07:02:52.351Z,-6.80
2022-12-15T07:06:36.950Z,-6.80
2022-12-15T07:10:18.818Z,-6.80
2022-12-15T07:14:00.659Z,-6.80
2022-12-15T07:17:42.432Z,-6.80
2022-12-15T07:21:24.381Z,-6.90
2022-12-15T07:25:07.128Z,-6.90
2022-12-15T07:28:48.894Z,-7.00
2022-12-15T07:32:31.219Z,-7.00
2022-12-15T07:36:13.196Z,-7.00
2022-12-15T07:39:54.954Z,-7.10
2022-12-15T07:43:38.451Z,-7.10
2022-12-15T07:47:20.510Z,-7.10
2022-12-15T07:51:11.116Z,-7.10
2022-12-15T07:54:57.444Z,-7.10
2022-12-15T07:58:39.201Z,-7.10
2022-12-15T08:02:21.402Z,-7.20
2022-12-15T08:06:14.275Z,-7.20
2022-12-15T08:09:56.052Z,-7.20
2022-12-15T08:17:41.279Z,-7.20
2022-12-15T08:21:23.311Z,-7.20
2022-12-15T08:25:05.421Z,-7.30
2022-12-15T08:28:47.219Z,-7.30
2022-12-15T08:32:29.011Z,-7.30
2022-12-15T08:36:13.171Z,-7.30
2022-12-15T08:39:54.929Z,-7.30
2022-12-15T08:43:42.511Z,-7.30
2022-12-15T08:47:27.500Z,-7.30
2022-12-15T08:51:09.817Z,-7.30
2022-12-15T08:54:51.637Z,-7.30
2022-12-15T08:58:33.897Z,-7.30
2022-12-15T09:02:15.764Z,-7.20
2022-12-15T09:06:05.172Z,-7.20
2022-12-15T09:09:46.988Z,-7.20
2022-12-15T09:13:29.297Z,-7.10
2022-12-15T09:17:11.513Z,-7.10
2022-12-15T09:20:56.316Z,-7.10
2022-12-15T09:24:38.049Z,-7.00
2022-12-15T09:28:19.749Z,-7.00
2022-12-15T09:32:01.663Z,-6.90
2022-12-15T09:35:50.862Z,-6.90
2022-12-15T09:39:32.585Z,-6.70
2022-12-15T09:43:34.468Z,-6.60
2022-12-15T09:47:32.127Z,-6.20
2022-12-15T09:51:17.997Z,-5.60
2022-12-15T09:55:01.755Z,-5.20
2022-12-15T09:58:46.679Z,-4.90
2022-12-15T10:02:47.359Z,-4.40
2022-12-15T10:06:38.117Z,-3.90
2022-12-15T10:10:33.026Z,-3.50
2022-12-15T10:14:29.002Z,-3.00
2022-12-15T10:18:23.353Z,-2.50
2022-12-15T10:22:05.436Z,-1.90
2022-12-15T10:25:59.610Z,-1.30
2022-12-15T10:29:45.943Z,-0.50
2022-12-15T10:33:36.591Z,0.50
2022-12-15T10:37:20.689Z,1.40
2022-12-15T10:41:08.448Z,2.30
2022-12-15T10:44:54.042Z,3.10
2022-12-15T10:48:37.451Z,3.70
2022-12-15T10:52:37.878Z,4.10
2022-12-15T10:56:33.261Z,4.30
2022-12-15T11:00:15.701Z,4.10
2022-12-15T11:03:58.105Z,3.80
2022-12-15T11:08:14.053Z,3.40
2022-12-15T11:12:14.615Z,2.90
2022-12-15T11:15:56.591Z,2.50
2022-12-15T11:19:55.112Z,2.00
2022-12-15T11:24:02.712Z,1.50
2022-12-15T11:27:46.411Z,1.10
2022-12-15T11:31:38.523Z,0.90
2022-12-15T11:35:27.425Z,0.70
2022-12-15T11:39:18.190Z,0.50
2022-12-15T11:43:05.739Z,0.30
2022-12-15T11:46:53.096Z,0.10
2022-12-15T11:50:46.724Z,0.10
2022-12-15T11:54:38.890Z,0.00
2022-12-15T11:58:40.885Z,-0.10
2022-12-15T12:02:57.173Z,-0.20
2022-12-15T12:06:57.447Z,-0.30
2022-12-15T12:11:03.388Z,-0.40
2022-12-15T12:14:51.371Z,-0.40
2022-12-15T12:18:39.404Z,-0.30
2022-12-15T12:22:39.677Z,-0.40
2022-12-15T12:27:07.815Z,-0.40
2022-12-15T12:30:50.656Z,-0.40
2022-12-15T12:34:52.910Z,-0.30
2022-12-15T12:38:56.709Z,-0.30
2022-12-15T12:42:45.270Z,-0.30
2022-12-15T12:46:43.967Z,-0.30
2022-12-15T12:50:30.226Z,-0.30
2022-12-15T12:54:36.729Z,-0.30
2022-12-15T12:58:45.489Z,-0.30
2022-12-15T13:02:37.996Z,-0.30
2022-12-15T13:06:36.225Z,-0.30
2022-12-15T13:10:20.891Z,-0.30
2022-12-15T13:14:09.201Z,-0.30
2022-12-15T13:18:00.539Z,-0.30
2022-12-15T13:21:42.385Z,-0.30
2022-12-15T13:25:35.787Z,-0.20
2022-12-15T13:29:21.912Z,-0.20
2022-12-15T13:33:18.777Z,-0.10
2022-12-15T13:37:01.334Z,-0.10
2022-12-15T13:40:56.203Z,-0.10
2022-12-15T13:44:41.730Z,0.00
2022-12-15T13:48:31.761Z,0.00
2022-12-15T13:53:08.139Z,0.10
2022-12-15T13:56:43.420Z,0.10
2022-12-15T14:00:25.272Z,0.10
2022-12-15T14:04:15.454Z,0.10
2022-12-15T14:08:00.439Z,0.10
2022-12-15T14:11:53.180Z,0.10
2022-12-15T14:15:40.269Z,0.10
2022-12-15T14:19:22.572Z,0.10
2022-12-15T14:23:19.338Z,0.10
2022-12-15T14:27:01.049Z,0.10
2022-12-15T14:30:42.851Z,0.10
2022-12-15T14:34:32.441Z,0.10
2022-12-15T14:38:30.475Z,0.10
2022-12-15T14:42:21.820Z,0.10
2022-12-15T14:46:11.259Z,0.20
2022-12-15T14:49:55.291Z,0.20
2022-12-15T14:53:41.783Z,0.60
2022-12-15T14:57:37.642Z,1.10
2022-12-15T15:01:45.072Z,1.80
2022-12-15T15:05:27.869Z,2.10
2022-12-15T15:09:33.120Z,2.00
2022-12-15T15:13:21.526Z,1.70
2022-12-15T15:17:05.602Z,1.40
2022-12-15T15:20:56.771Z,1.10
2022-12-15T15:24:39.419Z,0.90
2022-12-15T15:28:23.174Z,0.80
2022-12-15T15:32:19.093Z,0.60
2022-12-15T15:36:02.915Z,0.50
2022-12-15T15:39:48.706Z,0.40
2022-12-15T15:43:30.479Z,0.30
2022-12-15T15:47:25.273Z,0.20
2022-12-15T15:51:07.093Z,0.10
2022-12-15T15:54:48.981Z,0.00
2022-12-15T15:58:31.254Z,-0.10
2022-12-15T16:02:14.508Z,-0.20
2022-12-15T16:05:56.730Z,-0.20
2022-12-15T16:09:38.582Z,-0.30
2022-12-15T16:13:25.997Z,-0.40
2022-12-15T16:17:09.506Z,-0.40
2022-12-15T16:20:52.374Z,-0.50
2022-12-15T16:24:36.197Z,-0.60
2022-12-15T16:28:24.555Z,-0.70
2022-12-15T16:32:08.837Z,-0.70
2022-12-15T16:35:51.426Z,-0.80
2022-12-15T16:39:35.005Z,-0.90
2022-12-15T16:43:19.867Z,-0.90
2022-12-15T16:47:01.660Z,-1.00
2022-12-15T16:50:46.957Z,-1.10
2022-12-15T16:54:31.306Z,-1.10
2022-12-15T16:58:17.297Z,-1.10
2022-12-15T17:01:59.252Z,-1.20
2022-12-15T17:05:43.848Z,-1.20
2022-12-15T17:09:26.258Z,-1.20
2022-12-15T17:13:21.768Z,-1.20
2022-12-15T17:17:13.721Z,-1.30
2022-12-15T17:21:10.886Z,-1.30
2022-12-15T17:24:52.966Z,-1.40
2022-12-15T17:28:37.100Z,-1.40
2022-12-15T17:32:18.896Z,-1.50
2022-12-15T17:36:03.525Z,-1.50
2022-12-15T17:39:50.744Z,-1.60
2022-12-15T17:43:36.003Z,-1.60
2022-12-15T17:47:18.010Z,-1.70
2022-12-15T17:50:59.949Z,-1.70
2022-12-15T17:54:41.765Z,-1.80
2022-12-15T17:58:25.983Z,-1.80
2022-12-15T18:02:12.426Z,-1.90
2022-12-15T18:05:54.764Z,-2.00
2022-12-15T18:09:36.510Z,-2.00
2022-12-15T18:13:21.382Z,-2.10
2022-12-15T18:17:03.182Z,-2.10
2022-12-15T18:20:45.884Z,-2.20
2022-12-15T18:24:28.073Z,-2.20
2022-12-15T18:28:24.367Z,-2.30
2022-12-15T18:32:06.255Z,-2.30
2022-12-15T18:35:50.791Z,-2.40
2022-12-15T18:39:32.535Z,-2.40
2022-12-15T18:43:16.924Z,-2.40
2022-12-15T18:46:58.756Z,-2.50
2022-12-15T18:50:40.678Z,-2.60
2022-12-15T18:54:25.337Z,-2.60
2022-12-15T18:58:22.510Z,-2.70
2022-12-15T19:02:04.343Z,-2.70
2022-12-15T19:05:47.655Z,-2.80
2022-12-15T19:09:29.399Z,-2.80
2022-12-15T19:13:15.384Z,-2.90
2022-12-15T19:17:16.260Z,-2.90
2022-12-15T19:21:16.891Z,-3.00
2022-12-15T19:24:59.123Z,-3.00
2022-12-15T19:28:40.889Z,-3.10
2022-12-15T19:32:23.562Z,-3.10
2022-12-15T19:36:16.463Z,-3.20
2022-12-15T19:40:00.385Z,-3.30
2022-12-15T19:43:42.623Z,-3.30
2022-12-15T19:47:24.389Z,-3.40
2022-12-15T19:51:18.137Z,-3.40
2022-12-15T19:55:01.100Z,-3.50
2022-12-15T19:58:43.763Z,-3.50
2022-12-15T20:02:26.490Z,-3.50
2022-12-15T20:06:17.114Z,-3.60
2022-12-15T20:09:59.310Z,-3.60
2022-12-15T20:13:41.018Z,-3.60
2022-12-15T20:17:22.750Z,-3.60
2022-12-15T20:21:04.588Z,-3.70
2022-12-15T20:24:47.223Z,-3.70
2022-12-15T20:28:30.206Z,-3.70
2022-12-15T20:32:19.431Z,-3.80
2022-12-15T20:36:01.145Z,-3.80
2022-12-15T20:39:42.955Z,-3.90
2022-12-15T20:43:26.394Z,-3.90
2022-12-15T20:47:20.328Z,-4.00
2022-12-15T20:51:05.988Z,-4.00
2022-12-15T20:54:52.620Z,-4.00
2022-12-15T20:58:40.328Z,-4.10
2022-12-15T21:02:23.810Z,-4.20
2022-12-15T21:06:05.926Z,-4.20
2022-12-15T21:09:47.700Z,-4.20
2022-12-15T21:13:33.165Z,-4.30
2022-12-15T21:17:16.815Z,-4.30
2022-12-15T21:21:01.549Z,-4.30
2022-12-15T21:24:43.316Z,-4.30
2022-12-15T21:28:25.839Z,-4.40
2022-12-15T21:32:07.775Z,-4.40
2022-12-15T21:35:49.570Z,-4.40
2022-12-15T21:39:35.166Z,-4.40
2022-12-15T21:43:16.945Z,-4.40
2022-12-15T21:46:58.715Z,-4.50
2022-12-15T21:50:44.681Z,-4.50
2022-12-15T21:54:31.342Z,-4.50
2022-12-15T21:58:19.445Z,-4.50
2022-12-15T22:02:02.179Z,-4.60
2022-12-15T22:05:44.015Z,-4.60
2022-12-15T22:09:25.771Z,-4.70
2022-12-15T22:13:12.849Z,-4.70
2022-12-15T22:16:54.833Z,-4.70
2022-12-15T22:20:36.583Z,-4.70
2022-12-15T22:24:18.813Z,-4.70
2022-12-15T22:28:00.791Z,-4.80
2022-12-15T22:31:42.828Z,-4.80
2022-12-15T22:35:26.532Z,-4.80
2022-12-15T22:39:11.587Z,-4.90
2022-12-15T22:42:57.054Z,-4.90
2022-12-15T22:46:38.888Z,-4.90
2022-12-15T22:50:26.220Z,-4.90
2022-12-15T22:54:20.826Z,-5.00
2022-12-15T22:58:09.378Z,-5.10
2022-12-15T23:01:51.271Z,-5.10
2022-12-15T23:05:33.463Z,-5.10
2022-12-15T23:09:15.242Z,-5.10
2022-12-15T23:12:56.954Z,-5.10
2022-12-15T23:16:39.427Z,-5.20
2022-12-15T23:20:21.149Z,-5.20
2022-12-15T23:24:02.915Z,-5.30
2022-12-15T23:27:44.709Z,-5.30
2022-12-15T23:31:26.523Z,-5.30
2022-12-15T23:35:08.612Z,-5.40
2022-12-15T23:38:50.369Z,-5.40
2022-12-15T23:42:34.476Z,-5.40
2022-12-15T23:46:16.289Z,-5.40
2022-12-15T23:49:58.066Z,-5.50
2022-12-15T23:53:40.856Z,-5.40
2022-12-15T23:57:22.652Z,-5.50
